Terminal Aerodrome Forecast
Issued by NWS

Current Version | Previous Version | Text Only | Print | Product List | Glossary On
Versions: 1 2 3 4 5 6 7 8 9 10 11 12 13 14 15 16 17 18 19 20 21 22 23 24 25 26 27 28 29
000
FTUS41 KOKX 030200 AAA
TAFTEB
TAF AMD
KTEB 030230Z 0303/0324 32010KT P6SM SKC
     FM030500 32005KT P6SM SCT250
     FM031500 VRB03KT P6SM FEW015 SCT150
     FM031800 16006KT P6SM SCT020 BKN120
     FM032200 17008KT 6SM -SN BKN025 OVC060=

USA.gov is the U.S. government's official web portal to all federal, state and local government web resources and services.